sensor_id;sensor_type;location;lat;lon;timestamp;P1;durP1;ratioP1;P2;durP2;ratioP2
13493;SDS011;6819;50.886;4.332;2022-12-07T00:00:51;23.88;;;9.73;;
13493;SDS011;6819;50.886;4.332;2022-12-07T00:03:17;16.10;;;9.38;;
13493;SDS011;6819;50.886;4.332;2022-12-07T00:05:43;16.95;;;9.98;;
13493;SDS011;6819;50.886;4.332;2022-12-07T00:08:09;17.25;;;9.23;;
13493;SDS011;6819;50.886;4.332;2022-12-07T00:10:35;16.95;;;9.32;;
13493;SDS011;6819;50.886;4.332;2022-12-07T00:13:01;20.15;;;9.05;;
13493;SDS011;6819;50.886;4.332;2022-12-07T00:15:27;17.02;;;9.65;;
13493;SDS011;6819;50.886;4.332;2022-12-07T00:17:53;19.30;;;8.23;;
13493;SDS011;6819;50.886;4.332;2022-12-07T00:20:19;19.48;;;9.02;;
13493;SDS011;6819;50.886;4.332;2022-12-07T00:22:45;15.90;;;9.68;;
13493;SDS011;6819;50.886;4.332;2022-12-07T00:25:11;20.20;;;9.18;;
13493;SDS011;6819;50.886;4.332;2022-12-07T00:27:37;14.70;;;8.73;;
13493;SDS011;6819;50.886;4.332;2022-12-07T00:30:03;17.60;;;9.23;;
13493;SDS011;6819;50.886;4.332;2022-12-07T00:32:29;15.50;;;8.93;;
13493;SDS011;6819;50.886;4.332;2022-12-07T00:34:55;17.13;;;9.43;;
13493;SDS011;6819;50.886;4.332;2022-12-07T00:37:21;14.18;;;9.20;;
13493;SDS011;6819;50.886;4.332;2022-12-07T00:39:47;18.27;;;9.60;;
13493;SDS011;6819;50.886;4.332;2022-12-07T00:42:13;13.10;;;8.68;;
13493;SDS011;6819;50.886;4.332;2022-12-07T00:44:39;13.98;;;8.55;;
13493;SDS011;6819;50.886;4.332;2022-12-07T00:47:05;18.67;;;8.85;;
13493;SDS011;6819;50.886;4.332;2022-12-07T00:49:31;13.02;;;8.40;;
13493;SDS011;6819;50.886;4.332;2022-12-07T00:51:57;16.23;;;9.77;;
13493;SDS011;6819;50.886;4.332;2022-12-07T00:54:23;15.13;;;9.00;;
13493;SDS011;6819;50.886;4.332;2022-12-07T00:56:49;16.95;;;8.77;;
13493;SDS011;6819;50.886;4.332;2022-12-07T00:59:15;14.82;;;8.57;;
13493;SDS011;6819;50.886;4.332;2022-12-07T01:01:42;16.67;;;8.63;;
13493;SDS011;6819;50.886;4.332;2022-12-07T01:04:08;19.90;;;9.20;;
13493;SDS011;6819;50.886;4.332;2022-12-07T01:06:34;15.32;;;8.93;;
13493;SDS011;6819;50.886;4.332;2022-12-07T01:09:00;18.38;;;9.25;;
13493;SDS011;6819;50.886;4.332;2022-12-07T01:11:27;17.52;;;8.15;;
13493;SDS011;6819;50.886;4.332;2022-12-07T01:13:54;15.75;;;9.18;;
13493;SDS011;6819;50.886;4.332;2022-12-07T01:16:21;15.05;;;9.25;;
13493;SDS011;6819;50.886;4.332;2022-12-07T01:18:48;17.48;;;9.25;;
13493;SDS011;6819;50.886;4.332;2022-12-07T01:21:16;16.85;;;8.15;;
13493;SDS011;6819;50.886;4.332;2022-12-07T01:23:42;16.10;;;8.73;;
13493;SDS011;6819;50.886;4.332;2022-12-07T01:26:12;15.93;;;8.68;;
13493;SDS011;6819;50.886;4.332;2022-12-07T01:28:39;16.77;;;9.05;;
13493;SDS011;6819;50.886;4.332;2022-12-07T01:31:06;15.20;;;9.18;;
13493;SDS011;6819;50.886;4.332;2022-12-07T01:33:34;13.23;;;8.30;;
13493;SDS011;6819;50.886;4.332;2022-12-07T01:36:08;14.50;;;8.52;;
13493;SDS011;6819;50.886;4.332;2022-12-07T01:38:34;20.73;;;8.68;;
13493;SDS011;6819;50.886;4.332;2022-12-07T01:41:01;17.90;;;9.30;;
13493;SDS011;6819;50.886;4.332;2022-12-07T01:43:27;16.85;;;9.00;;
13493;SDS011;6819;50.886;4.332;2022-12-07T01:45:54;23.10;;;9.27;;
13493;SDS011;6819;50.886;4.332;2022-12-07T01:48:27;16.67;;;8.65;;
13493;SDS011;6819;50.886;4.332;2022-12-07T01:50:54;17.73;;;9.68;;
13493;SDS011;6819;50.886;4.332;2022-12-07T01:53:21;13.65;;;8.40;;
13493;SDS011;6819;50.886;4.332;2022-12-07T01:55:51;14.95;;;9.00;;
13493;SDS011;6819;50.886;4.332;2022-12-07T01:58:17;14.30;;;8.82;;
13493;SDS011;6819;50.886;4.332;2022-12-07T02:00:44;18.92;;;9.18;;
13493;SDS011;6819;50.886;4.332;2022-12-07T02:05:37;16.88;;;9.55;;
13493;SDS011;6819;50.886;4.332;2022-12-07T02:08:04;16.77;;;9.43;;
13493;SDS011;6819;50.886;4.332;2022-12-07T02:10:31;17.30;;;9.68;;
13493;SDS011;6819;50.886;4.332;2022-12-07T02:12:58;16.70;;;9.27;;
13493;SDS011;6819;50.886;4.332;2022-12-07T02:15:27;15.25;;;8.68;;
13493;SDS011;6819;50.886;4.332;2022-12-07T02:18:07;16.38;;;8.90;;
13493;SDS011;6819;50.886;4.332;2022-12-07T02:26:37;15.45;;;9.02;;
13493;SDS011;6819;50.886;4.332;2022-12-07T02:31:09;15.50;;;9.40;;
13493;SDS011;6819;50.886;4.332;2022-12-07T02:33:41;19.90;;;9.25;;
13493;SDS011;6819;50.886;4.332;2022-12-07T02:36:09;16.50;;;8.77;;
13493;SDS011;6819;50.886;4.332;2022-12-07T02:38:50;12.93;;;9.02;;
13493;SDS011;6819;50.886;4.332;2022-12-07T02:41:22;14.80;;;9.38;;
13493;SDS011;6819;50.886;4.332;2022-12-07T02:43:52;16.42;;;9.13;;
13493;SDS011;6819;50.886;4.332;2022-12-07T02:46:28;13.32;;;8.55;;
13493;SDS011;6819;50.886;4.332;2022-12-07T02:48:55;18.52;;;9.10;;
13493;SDS011;6819;50.886;4.332;2022-12-07T02:51:24;15.13;;;8.60;;
13493;SDS011;6819;50.886;4.332;2022-12-07T02:53:51;13.32;;;7.95;;
13493;SDS011;6819;50.886;4.332;2022-12-07T02:59:29;18.40;;;8.80;;
13493;SDS011;6819;50.886;4.332;2022-12-07T03:06:57;19.15;;;9.73;;
13493;SDS011;6819;50.886;4.332;2022-12-07T03:09:27;13.07;;;8.52;;
13493;SDS011;6819;50.886;4.332;2022-12-07T03:12:06;11.02;;;7.55;;
13493;SDS011;6819;50.886;4.332;2022-12-07T03:14:35;19.40;;;8.57;;
13493;SDS011;6819;50.886;4.332;2022-12-07T03:17:12;12.85;;;8.35;;
13493;SDS011;6819;50.886;4.332;2022-12-07T03:19:40;16.10;;;8.18;;
13493;SDS011;6819;50.886;4.332;2022-12-07T03:22:09;11.93;;;8.23;;
13493;SDS011;6819;50.886;4.332;2022-12-07T03:24:39;13.23;;;7.45;;
13493;SDS011;6819;50.886;4.332;2022-12-07T03:27:09;13.00;;;7.22;;
13493;SDS011;6819;50.886;4.332;2022-12-07T03:29:40;11.90;;;6.53;;
13493;SDS011;6819;50.886;4.332;2022-12-07T03:32:14;13.73;;;8.00;;
13493;SDS011;6819;50.886;4.332;2022-12-07T03:34:45;16.85;;;8.50;;
13493;SDS011;6819;50.886;4.332;2022-12-07T03:42:41;17.90;;;8.15;;
13493;SDS011;6819;50.886;4.332;2022-12-07T03:45:08;18.63;;;8.10;;
13493;SDS011;6819;50.886;4.332;2022-12-07T03:48:00;12.57;;;7.13;;
13493;SDS011;6819;50.886;4.332;2022-12-07T03:52:47;12.63;;;7.53;;
13493;SDS011;6819;50.886;4.332;2022-12-07T03:55:20;13.45;;;7.95;;
13493;SDS011;6819;50.886;4.332;2022-12-07T03:57:49;12.05;;;7.25;;
13493;SDS011;6819;50.886;4.332;2022-12-07T04:00:16;9.73;;;6.72;;
13493;SDS011;6819;50.886;4.332;2022-12-07T04:02:43;12.80;;;7.03;;
13493;SDS011;6819;50.886;4.332;2022-12-07T04:05:10;12.75;;;7.45;;
13493;SDS011;6819;50.886;4.332;2022-12-07T04:07:36;13.13;;;7.10;;
13493;SDS011;6819;50.886;4.332;2022-12-07T04:10:02;14.07;;;8.18;;
13493;SDS011;6819;50.886;4.332;2022-12-07T04:12:28;15.75;;;7.65;;
13493;SDS011;6819;50.886;4.332;2022-12-07T04:14:54;16.60;;;7.88;;
13493;SDS011;6819;50.886;4.332;2022-12-07T04:17:20;13.98;;;8.00;;
13493;SDS011;6819;50.886;4.332;2022-12-07T04:19:46;13.43;;;7.20;;
13493;SDS011;6819;50.886;4.332;2022-12-07T04:22:12;13.57;;;7.20;;
13493;SDS011;6819;50.886;4.332;2022-12-07T04:24:38;11.23;;;7.05;;
13493;SDS011;6819;50.886;4.332;2022-12-07T04:27:04;11.38;;;6.43;;
13493;SDS011;6819;50.886;4.332;2022-12-07T04:29:30;11.40;;;6.88;;
13493;SDS011;6819;50.886;4.332;2022-12-07T04:31:56;17.63;;;8.00;;
13493;SDS011;6819;50.886;4.332;2022-12-07T04:34:23;14.13;;;6.53;;
13493;SDS011;6819;50.886;4.332;2022-12-07T04:36:49;11.07;;;6.72;;
13493;SDS011;6819;50.886;4.332;2022-12-07T04:39:22;12.85;;;6.88;;
13493;SDS011;6819;50.886;4.332;2022-12-07T04:41:48;14.50;;;6.95;;
13493;SDS011;6819;50.886;4.332;2022-12-07T04:44:15;14.63;;;7.28;;
13493;SDS011;6819;50.886;4.332;2022-12-07T04:46:41;9.98;;;6.65;;
13493;SDS011;6819;50.886;4.332;2022-12-07T04:49:08;14.88;;;7.15;;
13493;SDS011;6819;50.886;4.332;2022-12-07T04:51:34;19.95;;;7.60;;
13493;SDS011;6819;50.886;4.332;2022-12-07T04:54:00;24.52;;;7.32;;
13493;SDS011;6819;50.886;4.332;2022-12-07T04:56:26;15.60;;;6.85;;
13493;SDS011;6819;50.886;4.332;2022-12-07T04:58:53;12.30;;;7.00;;
13493;SDS011;6819;50.886;4.332;2022-12-07T05:01:20;11.25;;;6.85;;
13493;SDS011;6819;50.886;4.332;2022-12-07T05:03:46;15.07;;;6.75;;
13493;SDS011;6819;50.886;4.332;2022-12-07T05:06:12;12.43;;;6.65;;
13493;SDS011;6819;50.886;4.332;2022-12-07T05:08:38;14.43;;;6.28;;
13493;SDS011;6819;50.886;4.332;2022-12-07T05:11:05;12.55;;;6.45;;
13493;SDS011;6819;50.886;4.332;2022-12-07T05:13:31;10.98;;;6.70;;
13493;SDS011;6819;50.886;4.332;2022-12-07T05:15:57;12.63;;;6.55;;
13493;SDS011;6819;50.886;4.332;2022-12-07T05:18:24;10.95;;;6.88;;
13493;SDS011;6819;50.886;4.332;2022-12-07T05:20:50;12.18;;;7.03;;
13493;SDS011;6819;50.886;4.332;2022-12-07T05:23:16;13.32;;;6.38;;
13493;SDS011;6819;50.886;4.332;2022-12-07T05:25:42;12.35;;;6.80;;
13493;SDS011;6819;50.886;4.332;2022-12-07T05:28:09;11.02;;;6.82;;
13493;SDS011;6819;50.886;4.332;2022-12-07T05:30:35;12.73;;;6.07;;
13493;SDS011;6819;50.886;4.332;2022-12-07T05:33:02;13.77;;;7.32;;
13493;SDS011;6819;50.886;4.332;2022-12-07T05:35:28;13.48;;;6.95;;
13493;SDS011;6819;50.886;4.332;2022-12-07T05:37:54;12.63;;;7.15;;
13493;SDS011;6819;50.886;4.332;2022-12-07T05:40:22;12.02;;;7.32;;
13493;SDS011;6819;50.886;4.332;2022-12-07T05:42:48;12.60;;;6.72;;
13493;SDS011;6819;50.886;4.332;2022-12-07T05:45:14;14.88;;;6.90;;
13493;SDS011;6819;50.886;4.332;2022-12-07T05:47:40;12.60;;;6.80;;
13493;SDS011;6819;50.886;4.332;2022-12-07T05:50:06;13.07;;;7.63;;
13493;SDS011;6819;50.886;4.332;2022-12-07T05:52:32;13.20;;;7.38;;
13493;SDS011;6819;50.886;4.332;2022-12-07T05:54:58;14.02;;;7.13;;
13493;SDS011;6819;50.886;4.332;2022-12-07T05:57:24;13.38;;;6.90;;
13493;SDS011;6819;50.886;4.332;2022-12-07T05:59:50;13.90;;;6.90;;
13493;SDS011;6819;50.886;4.332;2022-12-07T06:02:16;13.18;;;6.78;;
13493;SDS011;6819;50.886;4.332;2022-12-07T06:04:44;15.55;;;7.43;;
13493;SDS011;6819;50.886;4.332;2022-12-07T06:07:11;14.13;;;7.70;;
13493;SDS011;6819;50.886;4.332;2022-12-07T06:09:37;13.38;;;6.88;;
13493;SDS011;6819;50.886;4.332;2022-12-07T06:12:04;13.75;;;6.32;;
13493;SDS011;6819;50.886;4.332;2022-12-07T06:14:49;11.60;;;5.60;;
13493;SDS011;6819;50.886;4.332;2022-12-07T06:17:15;18.02;;;6.78;;
13493;SDS011;6819;50.886;4.332;2022-12-07T06:19:41;10.55;;;5.43;;
13493;SDS011;6819;50.886;4.332;2022-12-07T06:22:08;14.20;;;6.88;;
13493;SDS011;6819;50.886;4.332;2022-12-07T06:24:35;12.10;;;6.93;;
13493;SDS011;6819;50.886;4.332;2022-12-07T06:27:01;11.93;;;7.07;;
13493;SDS011;6819;50.886;4.332;2022-12-07T06:29:27;11.75;;;7.47;;
13493;SDS011;6819;50.886;4.332;2022-12-07T06:31:54;11.95;;;7.32;;
13493;SDS011;6819;50.886;4.332;2022-12-07T06:34:20;14.57;;;6.93;;
13493;SDS011;6819;50.886;4.332;2022-12-07T06:36:47;13.80;;;7.60;;
13493;SDS011;6819;50.886;4.332;2022-12-07T06:39:17;9.93;;;6.28;;
13493;SDS011;6819;50.886;4.332;2022-12-07T06:41:43;10.93;;;6.10;;
13493;SDS011;6819;50.886;4.332;2022-12-07T06:44:09;11.77;;;6.43;;
13493;SDS011;6819;50.886;4.332;2022-12-07T06:46:35;12.80;;;7.05;;
13493;SDS011;6819;50.886;4.332;2022-12-07T06:49:01;13.18;;;6.55;;
13493;SDS011;6819;50.886;4.332;2022-12-07T06:51:27;16.45;;;7.15;;
13493;SDS011;6819;50.886;4.332;2022-12-07T06:53:54;11.05;;;6.47;;
13493;SDS011;6819;50.886;4.332;2022-12-07T06:56:20;11.73;;;6.80;;
13493;SDS011;6819;50.886;4.332;2022-12-07T06:58:48;13.18;;;7.50;;
13493;SDS011;6819;50.886;4.332;2022-12-07T07:01:14;11.90;;;6.20;;
13493;SDS011;6819;50.886;4.332;2022-12-07T07:03:41;8.68;;;5.43;;
13493;SDS011;6819;50.886;4.332;2022-12-07T07:06:08;13.65;;;5.97;;
13493;SDS011;6819;50.886;4.332;2022-12-07T07:08:37;10.10;;;6.10;;
13493;SDS011;6819;50.886;4.332;2022-12-07T07:11:03;11.00;;;5.85;;
13493;SDS011;6819;50.886;4.332;2022-12-07T07:13:29;12.43;;;6.55;;
13493;SDS011;6819;50.886;4.332;2022-12-07T07:15:55;10.55;;;6.40;;
13493;SDS011;6819;50.886;4.332;2022-12-07T07:18:21;13.23;;;7.00;;
13493;SDS011;6819;50.886;4.332;2022-12-07T07:20:48;14.23;;;7.47;;
13493;SDS011;6819;50.886;4.332;2022-12-07T07:23:14;11.48;;;6.68;;
13493;SDS011;6819;50.886;4.332;2022-12-07T07:25:40;12.15;;;5.97;;
13493;SDS011;6819;50.886;4.332;2022-12-07T07:28:06;16.45;;;6.10;;
13493;SDS011;6819;50.886;4.332;2022-12-07T07:30:32;21.52;;;6.93;;
13493;SDS011;6819;50.886;4.332;2022-12-07T07:32:59;14.32;;;6.53;;
13493;SDS011;6819;50.886;4.332;2022-12-07T07:35:26;14.13;;;6.88;;
13493;SDS011;6819;50.886;4.332;2022-12-07T07:37:52;8.63;;;5.68;;
13493;SDS011;6819;50.886;4.332;2022-12-07T07:40:18;10.13;;;5.47;;
13493;SDS011;6819;50.886;4.332;2022-12-07T07:42:46;11.13;;;6.88;;
13493;SDS011;6819;50.886;4.332;2022-12-07T07:45:13;12.55;;;6.10;;
13493;SDS011;6819;50.886;4.332;2022-12-07T07:47:39;11.43;;;6.35;;
13493;SDS011;6819;50.886;4.332;2022-12-07T07:50:05;15.02;;;7.15;;
13493;SDS011;6819;50.886;4.332;2022-12-07T07:52:31;17.52;;;7.43;;
13493;SDS011;6819;50.886;4.332;2022-12-07T07:54:57;15.05;;;6.80;;
13493;SDS011;6819;50.886;4.332;2022-12-07T07:57:23;12.93;;;6.60;;
13493;SDS011;6819;50.886;4.332;2022-12-07T07:59:49;16.20;;;7.50;;
13493;SDS011;6819;50.886;4.332;2022-12-07T08:02:16;16.35;;;6.47;;
13493;SDS011;6819;50.886;4.332;2022-12-07T08:04:43;10.57;;;6.68;;
13493;SDS011;6819;50.886;4.332;2022-12-07T08:07:09;16.23;;;7.85;;
13493;SDS011;6819;50.886;4.332;2022-12-07T08:09:36;21.38;;;7.90;;
13493;SDS011;6819;50.886;4.332;2022-12-07T08:12:02;12.77;;;7.35;;
13493;SDS011;6819;50.886;4.332;2022-12-07T08:14:28;13.32;;;7.00;;
13493;SDS011;6819;50.886;4.332;2022-12-07T08:16:54;10.45;;;6.75;;
13493;SDS011;6819;50.886;4.332;2022-12-07T08:19:20;14.55;;;7.53;;
13493;SDS011;6819;50.886;4.332;2022-12-07T08:21:46;13.45;;;7.22;;
13493;SDS011;6819;50.886;4.332;2022-12-07T08:24:13;14.35;;;8.10;;
13493;SDS011;6819;50.886;4.332;2022-12-07T08:26:39;14.20;;;7.68;;
13493;SDS011;6819;50.886;4.332;2022-12-07T08:29:05;11.07;;;7.60;;
13493;SDS011;6819;50.886;4.332;2022-12-07T08:31:31;12.65;;;7.50;;
13493;SDS011;6819;50.886;4.332;2022-12-07T08:33:57;12.93;;;7.70;;
13493;SDS011;6819;50.886;4.332;2022-12-07T08:36:23;12.52;;;7.25;;
13493;SDS011;6819;50.886;4.332;2022-12-07T08:38:49;15.52;;;7.78;;
13493;SDS011;6819;50.886;4.332;2022-12-07T08:41:15;13.05;;;7.05;;
13493;SDS011;6819;50.886;4.332;2022-12-07T08:43:41;18.30;;;6.95;;
13493;SDS011;6819;50.886;4.332;2022-12-07T08:48:34;13.88;;;7.55;;
13493;SDS011;6819;50.886;4.332;2022-12-07T08:51:02;16.45;;;6.57;;
13493;SDS011;6819;50.886;4.332;2022-12-07T08:53:28;16.70;;;7.43;;
13493;SDS011;6819;50.886;4.332;2022-12-07T08:55:55;14.20;;;6.15;;
13493;SDS011;6819;50.886;4.332;2022-12-07T08:58:21;12.90;;;7.00;;
13493;SDS011;6819;50.886;4.332;2022-12-07T09:00:48;12.10;;;6.35;;
13493;SDS011;6819;50.886;4.332;2022-12-07T09:03:14;17.33;;;6.03;;
13493;SDS011;6819;50.886;4.332;2022-12-07T09:05:40;12.95;;;7.00;;
13493;SDS011;6819;50.886;4.332;2022-12-07T09:08:06;13.20;;;6.35;;
13493;SDS011;6819;50.886;4.332;2022-12-07T09:10:32;18.05;;;6.50;;
13493;SDS011;6819;50.886;4.332;2022-12-07T09:12:58;12.95;;;6.60;;
13493;SDS011;6819;50.886;4.332;2022-12-07T09:15:28;13.27;;;5.88;;
13493;SDS011;6819;50.886;4.332;2022-12-07T09:17:54;20.80;;;6.40;;
13493;SDS011;6819;50.886;4.332;2022-12-07T09:20:20;14.10;;;7.45;;
13493;SDS011;6819;50.886;4.332;2022-12-07T09:22:47;17.08;;;6.25;;
13493;SDS011;6819;50.886;4.332;2022-12-07T09:25:13;10.50;;;6.10;;
13493;SDS011;6819;50.886;4.332;2022-12-07T09:27:39;19.92;;;6.10;;
13493;SDS011;6819;50.886;4.332;2022-12-07T09:30:05;10.73;;;5.53;;
13493;SDS011;6819;50.886;4.332;2022-12-07T09:32:31;10.95;;;5.85;;
13493;SDS011;6819;50.886;4.332;2022-12-07T09:34:58;11.88;;;6.03;;
13493;SDS011;6819;50.886;4.332;2022-12-07T09:37:24;10.23;;;6.57;;
13493;SDS011;6819;50.886;4.332;2022-12-07T09:39:50;12.70;;;5.53;;
13493;SDS011;6819;50.886;4.332;2022-12-07T09:42:29;10.07;;;4.97;;
13493;SDS011;6819;50.886;4.332;2022-12-07T09:44:57;12.35;;;5.80;;
13493;SDS011;6819;50.886;4.332;2022-12-07T09:47:24;10.80;;;5.82;;
13493;SDS011;6819;50.886;4.332;2022-12-07T09:49:50;12.68;;;5.53;;
13493;SDS011;6819;50.886;4.332;2022-12-07T09:52:17;14.82;;;5.57;;
13493;SDS011;6819;50.886;4.332;2022-12-07T09:54:46;13.48;;;6.07;;
13493;SDS011;6819;50.886;4.332;2022-12-07T09:57:12;9.23;;;5.63;;
13493;SDS011;6819;50.886;4.332;2022-12-07T09:59:39;12.90;;;5.72;;
13493;SDS011;6819;50.886;4.332;2022-12-07T10:02:26;11.90;;;5.78;;
13493;SDS011;6819;50.886;4.332;2022-12-07T10:04:53;13.43;;;5.57;;
13493;SDS011;6819;50.886;4.332;2022-12-07T10:07:19;12.13;;;5.82;;
13493;SDS011;6819;50.886;4.332;2022-12-07T10:09:45;13.30;;;5.85;;
13493;SDS011;6819;50.886;4.332;2022-12-07T10:12:11;10.30;;;5.70;;
13493;SDS011;6819;50.886;4.332;2022-12-07T10:14:39;7.05;;;5.10;;
13493;SDS011;6819;50.886;4.332;2022-12-07T10:17:48;9.48;;;5.45;;
13493;SDS011;6819;50.886;4.332;2022-12-07T10:23:02;13.45;;;5.18;;
13493;SDS011;6819;50.886;4.332;2022-12-07T10:25:28;9.80;;;5.05;;
13493;SDS011;6819;50.886;4.332;2022-12-07T10:27:59;10.18;;;5.20;;
13493;SDS011;6819;50.886;4.332;2022-12-07T10:30:25;9.13;;;5.68;;
13493;SDS011;6819;50.886;4.332;2022-12-07T10:32:51;12.55;;;6.35;;
13493;SDS011;6819;50.886;4.332;2022-12-07T10:35:25;10.32;;;5.47;;
13493;SDS011;6819;50.886;4.332;2022-12-07T10:37:51;16.52;;;6.97;;
13493;SDS011;6819;50.886;4.332;2022-12-07T10:40:28;9.23;;;6.43;;
13493;SDS011;6819;50.886;4.332;2022-12-07T10:43:15;14.25;;;6.18;;
13493;SDS011;6819;50.886;4.332;2022-12-07T10:48:49;13.68;;;5.75;;
13493;SDS011;6819;50.886;4.332;2022-12-07T10:56:20;11.57;;;5.32;;
13493;SDS011;6819;50.886;4.332;2022-12-07T11:06:47;9.52;;;5.35;;
13493;SDS011;6819;50.886;4.332;2022-12-07T11:12:11;6.95;;;4.70;;
13493;SDS011;6819;50.886;4.332;2022-12-07T11:17:20;14.13;;;4.82;;
13493;SDS011;6819;50.886;4.332;2022-12-07T11:20:01;10.43;;;5.85;;
13493;SDS011;6819;50.886;4.332;2022-12-07T11:34:57;13.05;;;5.55;;
13493;SDS011;6819;50.886;4.332;2022-12-07T11:37:27;7.50;;;4.13;;
13493;SDS011;6819;50.886;4.332;2022-12-07T11:39:58;13.88;;;4.75;;
13493;SDS011;6819;50.886;4.332;2022-12-07T11:42:27;9.10;;;4.30;;
13493;SDS011;6819;50.886;4.332;2022-12-07T11:44:56;10.00;;;4.30;;
13493;SDS011;6819;50.886;4.332;2022-12-07T11:50:02;16.70;;;5.43;;
13493;SDS011;6819;50.886;4.332;2022-12-07T11:52:37;10.40;;;4.60;;
13493;SDS011;6819;50.886;4.332;2022-12-07T11:55:14;6.78;;;3.75;;
13493;SDS011;6819;50.886;4.332;2022-12-07T12:00:17;6.45;;;3.60;;
13493;SDS011;6819;50.886;4.332;2022-12-07T12:05:13;8.00;;;3.05;;
13493;SDS011;6819;50.886;4.332;2022-12-07T12:07:40;5.85;;;2.30;;
13493;SDS011;6819;50.886;4.332;2022-12-07T12:23:24;3.95;;;1.92;;
13493;SDS011;6819;50.886;4.332;2022-12-07T12:25:54;10.20;;;2.13;;
13493;SDS011;6819;50.886;4.332;2022-12-07T12:31:09;6.50;;;2.00;;
13493;SDS011;6819;50.886;4.332;2022-12-07T12:33:37;4.72;;;1.60;;
13493;SDS011;6819;50.886;4.332;2022-12-07T12:38:49;4.07;;;1.60;;
13493;SDS011;6819;50.886;4.332;2022-12-07T12:44:00;6.25;;;1.70;;
13493;SDS011;6819;50.886;4.332;2022-12-07T12:51:45;5.78;;;1.75;;
13493;SDS011;6819;50.886;4.332;2022-12-07T12:54:21;2.22;;;1.38;;
13493;SDS011;6819;50.886;4.332;2022-12-07T12:59:33;7.13;;;1.88;;
13493;SDS011;6819;50.886;4.332;2022-12-07T13:07:02;6.35;;;1.90;;
13493;SDS011;6819;50.886;4.332;2022-12-07T13:09:29;5.18;;;2.05;;
13493;SDS011;6819;50.886;4.332;2022-12-07T13:11:58;5.90;;;1.98;;
13493;SDS011;6819;50.886;4.332;2022-12-07T13:17:01;6.75;;;2.10;;
13493;SDS011;6819;50.886;4.332;2022-12-07T13:22:49;5.68;;;1.90;;
13493;SDS011;6819;50.886;4.332;2022-12-07T13:24:56;4.18;;;2.40;;
13493;SDS011;6819;50.886;4.332;2022-12-07T13:27:26;5.68;;;1.92;;
13493;SDS011;6819;50.886;4.332;2022-12-07T13:29:52;6.65;;;1.90;;
13493;SDS011;6819;50.886;4.332;2022-12-07T13:32:37;11.15;;;1.90;;
13493;SDS011;6819;50.886;4.332;2022-12-07T13:35:26;4.70;;;1.95;;
13493;SDS011;6819;50.886;4.332;2022-12-07T13:37:49;4.32;;;1.90;;
13493;SDS011;6819;50.886;4.332;2022-12-07T13:40:17;5.55;;;2.10;;
13493;SDS011;6819;50.886;4.332;2022-12-07T13:42:44;4.68;;;1.90;;
13493;SDS011;6819;50.886;4.332;2022-12-07T13:45:26;5.93;;;1.95;;
13493;SDS011;6819;50.886;4.332;2022-12-07T13:48:18;3.67;;;1.83;;
13493;SDS011;6819;50.886;4.332;2022-12-07T13:50:52;8.40;;;2.17;;
13493;SDS011;6819;50.886;4.332;2022-12-07T13:53:19;3.72;;;1.80;;
13493;SDS011;6819;50.886;4.332;2022-12-07T13:55:45;3.38;;;1.80;;
13493;SDS011;6819;50.886;4.332;2022-12-07T13:58:12;4.85;;;2.38;;
13493;SDS011;6819;50.886;4.332;2022-12-07T14:00:39;9.40;;;2.88;;
13493;SDS011;6819;50.886;4.332;2022-12-07T14:05:38;4.75;;;1.50;;
13493;SDS011;6819;50.886;4.332;2022-12-07T14:10:37;2.88;;;1.33;;
13493;SDS011;6819;50.886;4.332;2022-12-07T14:13:22;4.50;;;1.70;;
13493;SDS011;6819;50.886;4.332;2022-12-07T14:15:50;5.57;;;2.10;;
13493;SDS011;6819;50.886;4.332;2022-12-07T14:21:02;6.10;;;2.20;;
13493;SDS011;6819;50.886;4.332;2022-12-07T14:23:28;5.68;;;1.80;;
13493;SDS011;6819;50.886;4.332;2022-12-07T14:26:03;4.40;;;1.65;;
13493;SDS011;6819;50.886;4.332;2022-12-07T14:30:56;3.40;;;1.88;;
13493;SDS011;6819;50.886;4.332;2022-12-07T14:33:22;5.65;;;1.77;;
13493;SDS011;6819;50.886;4.332;2022-12-07T14:35:48;4.97;;;1.73;;
13493;SDS011;6819;50.886;4.332;2022-12-07T14:38:14;5.30;;;1.83;;
13493;SDS011;6819;50.886;4.332;2022-12-07T14:40:43;5.65;;;1.75;;
13493;SDS011;6819;50.886;4.332;2022-12-07T14:43:10;2.03;;;1.30;;
13493;SDS011;6819;50.886;4.332;2022-12-07T14:45:37;3.40;;;1.55;;
13493;SDS011;6819;50.886;4.332;2022-12-07T14:48:04;4.22;;;1.80;;
13493;SDS011;6819;50.886;4.332;2022-12-07T14:50:31;5.40;;;1.35;;
13493;SDS011;6819;50.886;4.332;2022-12-07T14:53:00;4.13;;;1.52;;
13493;SDS011;6819;50.886;4.332;2022-12-07T14:55:29;4.38;;;1.50;;
13493;SDS011;6819;50.886;4.332;2022-12-07T14:57:56;2.35;;;1.30;;
13493;SDS011;6819;50.886;4.332;2022-12-07T15:00:23;3.40;;;1.27;;
13493;SDS011;6819;50.886;4.332;2022-12-07T15:02:49;5.50;;;1.55;;
13493;SDS011;6819;50.886;4.332;2022-12-07T15:05:16;3.83;;;1.60;;
13493;SDS011;6819;50.886;4.332;2022-12-07T15:07:43;4.95;;;1.50;;
13493;SDS011;6819;50.886;4.332;2022-12-07T15:10:28;2.92;;;1.30;;
13493;SDS011;6819;50.886;4.332;2022-12-07T15:12:57;2.05;;;1.30;;
13493;SDS011;6819;50.886;4.332;2022-12-07T15:15:46;3.55;;;1.50;;
13493;SDS011;6819;50.886;4.332;2022-12-07T15:18:12;3.10;;;1.17;;
13493;SDS011;6819;50.886;4.332;2022-12-07T15:20:38;3.88;;;2.03;;
13493;SDS011;6819;50.886;4.332;2022-12-07T15:23:04;3.58;;;1.75;;
13493;SDS011;6819;50.886;4.332;2022-12-07T15:25:31;4.00;;;1.67;;
13493;SDS011;6819;50.886;4.332;2022-12-07T15:27:57;4.30;;;1.48;;
13493;SDS011;6819;50.886;4.332;2022-12-07T15:30:23;3.10;;;1.58;;
13493;SDS011;6819;50.886;4.332;2022-12-07T15:32:49;3.30;;;1.75;;
13493;SDS011;6819;50.886;4.332;2022-12-07T15:35:16;4.15;;;1.60;;
13493;SDS011;6819;50.886;4.332;2022-12-07T15:37:42;8.85;;;2.40;;
13493;SDS011;6819;50.886;4.332;2022-12-07T15:40:08;3.70;;;1.70;;
13493;SDS011;6819;50.886;4.332;2022-12-07T15:42:35;7.53;;;1.90;;
13493;SDS011;6819;50.886;4.332;2022-12-07T15:45:01;4.68;;;2.05;;
13493;SDS011;6819;50.886;4.332;2022-12-07T15:47:31;4.15;;;1.98;;
13493;SDS011;6819;50.886;4.332;2022-12-07T15:49:57;3.55;;;2.47;;
13493;SDS011;6819;50.886;4.332;2022-12-07T15:52:23;5.90;;;3.42;;
13493;SDS011;6819;50.886;4.332;2022-12-07T15:54:49;10.13;;;3.03;;
13493;SDS011;6819;50.886;4.332;2022-12-07T15:57:15;5.13;;;2.95;;
13493;SDS011;6819;50.886;4.332;2022-12-07T15:59:41;5.22;;;2.78;;
13493;SDS011;6819;50.886;4.332;2022-12-07T16:02:08;9.77;;;3.17;;
13493;SDS011;6819;50.886;4.332;2022-12-07T16:04:35;5.22;;;2.53;;
13493;SDS011;6819;50.886;4.332;2022-12-07T16:07:01;7.00;;;3.42;;
13493;SDS011;6819;50.886;4.332;2022-12-07T16:09:27;7.07;;;2.92;;
13493;SDS011;6819;50.886;4.332;2022-12-07T16:11:54;5.70;;;3.47;;
13493;SDS011;6819;50.886;4.332;2022-12-07T16:14:20;7.03;;;3.08;;
13493;SDS011;6819;50.886;4.332;2022-12-07T16:16:46;8.93;;;3.10;;
13493;SDS011;6819;50.886;4.332;2022-12-07T16:19:13;5.53;;;2.72;;
13493;SDS011;6819;50.886;4.332;2022-12-07T16:21:39;7.20;;;2.65;;
13493;SDS011;6819;50.886;4.332;2022-12-07T16:24:05;8.05;;;3.47;;
13493;SDS011;6819;50.886;4.332;2022-12-07T16:26:31;9.13;;;3.40;;
13493;SDS011;6819;50.886;4.332;2022-12-07T16:28:58;5.75;;;3.00;;
13493;SDS011;6819;50.886;4.332;2022-12-07T16:31:24;4.25;;;2.90;;
13493;SDS011;6819;50.886;4.332;2022-12-07T16:33:55;8.00;;;3.42;;
13493;SDS011;6819;50.886;4.332;2022-12-07T16:36:21;5.22;;;2.78;;
13493;SDS011;6819;50.886;4.332;2022-12-07T16:38:49;7.05;;;3.03;;
13493;SDS011;6819;50.886;4.332;2022-12-07T16:41:15;10.23;;;3.38;;
13493;SDS011;6819;50.886;4.332;2022-12-07T16:43:41;8.02;;;3.63;;
13493;SDS011;6819;50.886;4.332;2022-12-07T16:46:07;8.55;;;3.75;;
13493;SDS011;6819;50.886;4.332;2022-12-07T16:48:37;6.32;;;2.53;;
13493;SDS011;6819;50.886;4.332;2022-12-07T16:51:04;7.57;;;3.90;;
13493;SDS011;6819;50.886;4.332;2022-12-07T16:53:31;5.65;;;3.55;;
13493;SDS011;6819;50.886;4.332;2022-12-07T16:55:57;8.52;;;3.70;;
13493;SDS011;6819;50.886;4.332;2022-12-07T16:58:23;10.27;;;4.03;;
13493;SDS011;6819;50.886;4.332;2022-12-07T17:00:49;7.22;;;4.00;;